Time;durP1;ratioP1;P1;durP2;ratioP2;P2;SDS_P1;SDS_P2;PMS_P1;PMS_P2;Temp;Humidity;BMP_temperature;BMP_pressure;BME280_temperature;BME280_humidity;BME280_pressure;Samples;Min_cycle;Max_cycle;Signal;HPM_P1;HPM_P2
2021/01/19 11:16:50;;;;;;;9.32;6.05;;;;;;;;;;3991573;29;21330;-78
2021/01/19 11:19:19;;;;;;;12.48;6.97;;;;;;;;;;4852611;29;20065;-78
2021/01/19 11:21:46;;;;;;;12.63;6.13;;;;;;;;;;4855244;29;20053;-78
2021/01/19 11:24:12;;;;;;;8.95;5.55;;;;;;;;;;4853621;29;20144;-79
2021/01/19 11:26:40;;;;;;;8.15;5.78;;;;;;;;;;4853711;29;20408;-78
2021/01/19 11:29:16;;;;;;;9.05;6.32;;;;;;;;;;4849416;29;20072;-78
2021/01/19 11:31:42;;;;;;;8.85;5.57;;;;;;;;;;4856377;29;20137;-78
2021/01/19 11:34:10;;;;;;;9.13;5.50;;;;;;;;;;4848962;29;20121;-78
2021/01/19 11:36:38;;;;;;;9.63;6.10;;;;;;;;;;4851011;29;20049;-79
2021/01/19 11:39:05;;;;;;;9.25;6.25;;;;;;;;;;4856242;29;20499;-80
2021/01/19 11:41:31;;;;;;;8.18;5.28;;;;;;;;;;4857641;29;20122;-78
2021/01/19 11:43:57;;;;;;;11.35;5.82;;;;;;;;;;4848296;29;20085;-79
2021/01/19 11:46:27;;;;;;;8.30;5.57;;;;;;;;;;4851623;29;20080;-79
2021/01/19 11:48:53;;;;;;;;;;;;;;;;;;4854687;29;20061;-78
2021/01/19 11:51:21;;;;;;;9.30;5.38;;;;;;;;;;4851223;29;20022;-78
2021/01/19 11:53:47;;;;;;;6.97;4.93;;;;;;;;;;4852711;29;20106;-79
2021/01/19 11:56:14;;;;;;;8.15;5.57;;;;;;;;;;4852505;29;20060;-79
2021/01/19 11:58:40;;;;;;;7.55;4.78;;;;;;;;;;4854021;29;20230;-80
2021/01/19 12:01:07;;;;;;;7.85;5.15;;;;;;;;;;4850945;29;20128;-80
2021/01/19 12:03:35;;;;;;;8.85;5.15;;;;;;;;;;4850401;29;20053;-79
2021/01/19 12:06:01;;;;;;;9.30;5.43;;;;;;;;;;4855918;29;20469;-80
2021/01/19 12:08:27;;;;;;;7.70;5.32;;;;;;;;;;4851646;29;21106;-79
2021/01/19 12:10:53;;;;;;;11.95;5.95;;;;;;;;;;4847821;29;20081;-80
2021/01/19 12:13:19;;;;;;;8.90;6.05;;;;;;;;;;4851774;29;20411;-79
2021/01/19 12:15:45;;;;;;;9.65;5.00;;;;;;;;;;4850426;29;20556;-80
2021/01/19 12:18:12;;;;;;;6.97;4.20;;;;;;;;;;4843802;29;20062;-79
2021/01/19 12:20:38;;;;;;;8.90;5.40;;;;;;;;;;4848928;29;20496;-79
2021/01/19 12:23:04;;;;;;;8.13;5.40;;;;;;;;;;4843806;29;20093;-79
2021/01/19 12:25:31;;;;;;;6.85;4.13;;;;;;;;;;4846217;29;20137;-79
2021/01/19 12:27:58;;;;;;;8.25;4.53;;;;;;;;;;4845591;29;20049;-79
2021/01/19 12:30:24;;;;;;;5.60;4.35;;;;;;;;;;4842611;29;20053;-79
2021/01/19 12:32:52;;;;;;;6.57;4.70;;;;;;;;;;4850055;29;20069;-79
2021/01/19 12:35:19;;;;;;;5.90;4.30;;;;;;;;;;4848631;29;20125;-79
2021/01/19 12:37:48;;;;;;;8.18;4.22;;;;;;;;;;4841873;29;20054;-79
2021/01/19 12:40:14;;;;;;;6.78;4.82;;;;;;;;;;4839774;29;20137;-78
2021/01/19 12:42:41;;;;;;;9.05;6.32;;;;;;;;;;4839998;29;20141;-79
2021/01/19 12:45:07;;;;;;;16.33;8.52;;;;;;;;;;4851807;29;20651;-79
2021/01/19 12:47:34;;;;;;;11.93;8.32;;;;;;;;;;4844080;29;20049;-79
2021/01/19 12:50:00;;;;;;;20.17;11.40;;;;;;;;;;4848496;29;20049;-79
2021/01/19 12:52:26;;;;;;;19.05;11.32;;;;;;;;;;4853512;29;20458;-79
2021/01/19 12:54:53;;;;;;;15.48;10.88;;;;;;;;;;4846759;29;20049;-79
2021/01/19 12:57:19;;;;;;;19.25;12.82;;;;;;;;;;4841956;29;20571;-79
2021/01/19 12:59:45;;;;;;;21.55;12.70;;;;;;;;;;4842902;29;20542;-79
2021/01/19 13:02:18;;;;;;;18.15;12.93;;;;;;;;;;4845777;29;20118;-79
2021/01/19 13:04:44;;;;;;;19.42;13.98;;;;;;;;;;4846289;29;20055;-79
2021/01/19 13:07:13;;;;;;;25.48;13.63;;;;;;;;;;4848048;29;20133;-79
2021/01/19 13:09:40;;;;;;;20.77;13.23;;;;;;;;;;4847745;29;20488;-80
2021/01/19 13:12:08;;;;;;;20.60;13.45;;;;;;;;;;4840226;29;20050;-79
2021/01/19 13:14:34;;;;;;;22.52;14.50;;;;;;;;;;4845050;29;20140;-79
2021/01/19 13:17:01;;;;;;;18.48;13.45;;;;;;;;;;4848143;29;20515;-79
2021/01/19 13:19:27;;;;;;;21.63;12.93;;;;;;;;;;4841097;29;20050;-79
2021/01/19 13:21:57;;;;;;;16.27;12.43;;;;;;;;;;4840370;29;20408;-77
2021/01/19 13:24:23;;;;;;;18.60;11.65;;;;;;;;;;4841643;29;20133;-80
2021/01/19 13:26:49;;;;;;;27.58;12.45;;;;;;;;;;4841657;29;20583;-75
2021/01/19 13:29:15;;;;;;;18.45;10.88;;;;;;;;;;4842286;29;20062;-75
2021/01/19 13:31:41;;;;;;;17.30;11.18;;;;;;;;;;4841991;29;20073;-75
2021/01/19 13:34:07;;;;;;;18.42;11.07;;;;;;;;;;4842483;29;20431;-75
2021/01/19 13:36:35;;;;;;;16.35;11.18;;;;;;;;;;4843624;29;20042;-74
2021/01/19 13:39:03;;;;;;;15.23;10.88;;;;;;;;;;4841931;29;20140;-75
2021/01/19 13:41:35;;;;;;;19.23;10.98;;;;;;;;;;4844071;29;20081;-75
2021/01/19 13:44:02;;;;;;;19.38;11.13;;;;;;;;;;4843066;29;20071;-75
2021/01/19 13:46:29;;;;;;;15.30;8.80;;;;;;;;;;4845874;29;20053;-75
2021/01/19 13:48:56;;;;;;;16.42;9.85;;;;;;;;;;4846006;29;20157;-80
2021/01/19 13:51:23;;;;;;;12.98;9.77;;;;;;;;;;4846495;29;20041;-80
2021/01/19 13:53:49;;;;;;;18.10;10.70;;;;;;;;;;4844622;29;20172;-80
2021/01/19 13:56:17;;;;;;;14.18;8.05;;;;;;;;;;4844345;29;20497;-75
2021/01/19 13:58:44;;;;;;;13.25;8.38;;;;;;;;;;4840379;29;20082;-78
2021/01/19 14:01:10;;;;;;;17.20;8.93;;;;;;;;;;4842277;29;20500;-76
2021/01/19 14:03:36;;;;;;;20.42;8.57;;;;;;;;;;4837409;29;20046;-76
2021/01/19 14:06:03;;;;;;;14.02;8.13;;;;;;;;;;4838594;29;20129;-78
2021/01/19 14:08:31;;;;;;;16.85;8.15;;;;;;;;;;4850600;29;20046;-78
2021/01/19 14:10:59;;;;;;;16.13;7.07;;;;;;;;;;4845246;29;20087;-78
2021/01/19 14:13:26;;;;;;;10.18;8.02;;;;;;;;;;4845694;29;20122;-77
2021/01/19 14:15:52;;;;;;;12.93;7.38;;;;;;;;;;4848313;29;20049;-74
2021/01/19 14:18:19;;;;;;;12.60;7.95;;;;;;;;;;4852808;29;20137;-75
2021/01/19 14:20:48;;;;;;;11.27;7.03;;;;;;;;;;4850881;29;20053;-74
2021/01/19 14:23:14;;;;;;;10.05;6.32;;;;;;;;;;4852779;29;20428;-74
2021/01/19 14:25:40;;;;;;;10.88;7.55;;;;;;;;;;4847507;29;20080;-74
2021/01/19 14:28:07;;;;;;;13.23;6.47;;;;;;;;;;4846049;29;20061;-74
2021/01/19 14:30:33;;;;;;;9.70;6.15;;;;;;;;;;4850834;29;20476;-74
2021/01/19 14:32:59;;;;;;;9.60;6.55;;;;;;;;;;4852416;29;20061;-74
2021/01/19 14:35:25;;;;;;;9.80;6.65;;;;;;;;;;4854144;29;20045;-74
2021/01/19 14:37:56;;;;;;;13.30;7.07;;;;;;;;;;4850638;29;20069;-74
2021/01/19 14:40:23;;;;;;;13.95;6.43;;;;;;;;;;4851002;29;20057;-74
2021/01/19 14:42:55;;;;;;;10.48;6.50;;;;;;;;;;4854746;29;20142;-78
2021/01/19 14:45:22;;;;;;;10.38;6.45;;;;;;;;;;4851701;29;20247;-76
2021/01/19 14:47:48;;;;;;;16.02;6.45;;;;;;;;;;4855000;29;20607;-76
2021/01/19 14:50:19;;;;;;;8.48;5.60;;;;;;;;;;4852588;29;20140;-76
2021/01/19 14:52:47;;;;;;;9.35;6.03;;;;;;;;;;4849489;29;20085;-76
2021/01/19 14:55:13;;;;;;;9.98;6.00;;;;;;;;;;4852718;29;20111;-76
2021/01/19 14:57:41;;;;;;;8.07;5.30;;;;;;;;;;4854803;29;20049;-76
2021/01/19 15:00:10;;;;;;;8.40;5.35;;;;;;;;;;4852482;29;20077;-76
2021/01/19 15:02:36;;;;;;;6.95;5.20;;;;;;;;;;4854023;29;20052;-76
2021/01/19 15:05:03;;;;;;;11.30;5.53;;;;;;;;;;4847426;29;20067;-77
2021/01/19 15:07:29;;;;;;;9.00;5.13;;;;;;;;;;4852805;29;20136;-77
2021/01/19 15:09:55;;;;;;;6.40;4.78;;;;;;;;;;4848929;29;20109;-77
2021/01/19 15:12:26;;;;;;;8.50;5.25;;;;;;;;;;4851419;29;20084;-77
2021/01/19 15:14:53;;;;;;;8.55;5.18;;;;;;;;;;4851463;29;20049;-76
2021/01/19 15:17:20;;;;;;;9.68;5.03;;;;;;;;;;4851066;29;20114;-76
2021/01/19 15:19:47;;;;;;;7.05;5.07;;;;;;;;;;4852752;29;20053;-77
2021/01/19 15:22:21;;;;;;;8.15;4.57;;;;;;;;;;4851146;29;20515;-77
2021/01/19 15:24:47;;;;;;;9.68;4.95;;;;;;;;;;4849346;29;20057;-76
2021/01/19 15:27:14;;;;;;;6.90;4.80;;;;;;;;;;4844517;29;20154;-76
2021/01/19 15:29:41;;;;;;;7.30;5.00;;;;;;;;;;4850653;29;20136;-76
2021/01/19 15:32:10;;;;;;;6.85;4.72;;;;;;;;;;4854339;29;20125;-77
2021/01/19 15:34:40;;;;;;;7.90;4.40;;;;;;;;;;4848459;29;20065;-77
2021/01/19 15:37:06;;;;;;;7.57;4.05;;;;;;;;;;4847861;29;20141;-77
2021/01/19 15:39:34;;;;;;;8.85;4.78;;;;;;;;;;4852344;29;20110;-76
2021/01/19 15:42:02;;;;;;;7.60;4.20;;;;;;;;;;4849499;29;20054;-76
2021/01/19 15:44:28;;;;;;;9.18;4.60;;;;;;;;;;4848989;29;20057;-76
2021/01/19 15:46:55;;;;;;;5.85;3.95;;;;;;;;;;4854340;29;20077;-76
2021/01/19 15:49:21;;;;;;;7.10;3.97;;;;;;;;;;4850384;29;20057;-76
2021/01/19 15:51:48;;;;;;;7.57;4.22;;;;;;;;;;4847998;29;20171;-78
2021/01/19 15:54:16;;;;;;;6.38;4.68;;;;;;;;;;4852202;29;20136;-77
2021/01/19 15:56:43;;;;;;;4.50;3.45;;;;;;;;;;4851945;29;20089;-76
2021/01/19 15:59:17;;;;;;;6.75;4.40;;;;;;;;;;4850767;29;20054;-76
2021/01/19 16:01:47;;;;;;;8.88;4.47;;;;;;;;;;4851375;29;20064;-76
2021/01/19 16:04:14;;;;;;;6.30;4.30;;;;;;;;;;4853357;29;20189;-78
2021/01/19 16:06:40;;;;;;;6.68;4.38;;;;;;;;;;4848868;29;20125;-79
2021/01/19 16:09:07;;;;;;;6.60;4.63;;;;;;;;;;4850132;29;20060;-78
2021/01/19 16:11:34;;;;;;;5.85;3.90;;;;;;;;;;4847155;29;20045;-77
2021/01/19 16:14:04;;;;;;;5.68;3.90;;;;;;;;;;4844876;29;20058;-78
2021/01/19 16:16:33;;;;;;;7.47;4.40;;;;;;;;;;4841620;29;20160;-77
2021/01/19 16:19:03;;;;;;;5.88;3.72;;;;;;;;;;4842199;29;20053;-78
2021/01/19 16:21:29;;;;;;;5.40;3.78;;;;;;;;;;4847713;29;20136;-79
2021/01/19 16:23:55;;;;;;;4.80;3.40;;;;;;;;;;4850098;29;20672;-81
2021/01/19 16:26:29;;;;;;;6.57;3.72;;;;;;;;;;4850256;29;20056;-80
2021/01/19 16:28:57;;;;;;;6.13;3.22;;;;;;;;;;4850295;29;20053;-80
2021/01/19 16:31:25;;;;;;;7.20;3.88;;;;;;;;;;4851631;29;20061;-79
2021/01/19 16:33:52;;;;;;;4.82;3.47;;;;;;;;;;4854763;29;20057;-80
2021/01/19 16:36:38;;;;;;;4.53;3.25;;;;;;;;;;4851737;29;20541;-79
2021/01/19 16:39:08;;;;;;;5.75;3.42;;;;;;;;;;4849169;29;20056;-81
2021/01/19 16:41:38;;;;;;;6.40;3.75;;;;;;;;;;4849226;29;20140;-79
2021/01/19 16:44:07;;;;;;;5.03;3.50;;;;;;;;;;4849334;29;20068;-80
2021/01/19 16:46:33;;;;;;;4.93;3.67;;;;;;;;;;4847774;29;20137;-80
2021/01/19 16:49:00;;;;;;;5.07;3.63;;;;;;;;;;4846521;29;20068;-78
2021/01/19 16:51:26;;;;;;;7.85;3.83;;;;;;;;;;4842926;29;20165;-79
2021/01/19 16:53:52;;;;;;;5.60;3.42;;;;;;;;;;4848438;29;20152;-80
2021/01/19 16:56:19;;;;;;;5.38;3.83;;;;;;;;;;4850557;29;20110;-78
2021/01/19 16:58:46;;;;;;;5.78;3.70;;;;;;;;;;4848783;29;20144;-78
2021/01/19 17:01:12;;;;;;;6.57;3.90;;;;;;;;;;4854345;29;20148;-80
2021/01/19 17:03:40;;;;;;;8.00;4.25;;;;;;;;;;4846413;29;20106;-81
2021/01/19 17:06:25;;;;;;;5.70;3.85;;;;;;;;;;4849070;29;20180;-80
2021/01/19 17:08:52;;;;;;;6.55;3.97;;;;;;;;;;4846741;29;20155;-78
2021/01/19 17:11:18;;;;;;;6.57;3.67;;;;;;;;;;4848069;29;20634;-79
2021/01/19 17:13:44;;;;;;;6.57;4.32;;;;;;;;;;4846440;29;20084;-78
2021/01/19 17:16:14;;;;;;;4.90;3.60;;;;;;;;;;4842540;29;20148;-78
2021/01/19 17:18:41;;;;;;;5.50;3.50;;;;;;;;;;4848579;29;20140;-78
2021/01/19 17:21:07;;;;;;;8.77;3.85;;;;;;;;;;4848840;29;20053;-79
2021/01/19 17:23:34;;;;;;;6.82;3.42;;;;;;;;;;4849223;29;20071;-78
2021/01/19 17:26:01;;;;;;;5.32;3.65;;;;;;;;;;4843335;29;20053;-78
2021/01/19 17:28:27;;;;;;;4.43;3.20;;;;;;;;;;4841804;29;20058;-78
2021/01/19 17:30:53;;;;;;;7.50;3.85;;;;;;;;;;4843426;29;20556;-78
2021/01/19 17:33:25;;;;;;;6.18;3.72;;;;;;;;;;4840742;29;20072;-78
2021/01/19 17:35:55;;;;;;;8.32;3.70;;;;;;;;;;4847850;29;20057;-78
2021/01/19 17:38:21;;;;;;;8.00;3.78;;;;;;;;;;4847719;29;20073;-77
2021/01/19 17:40:47;;;;;;;7.95;4.00;;;;;;;;;;4845836;29;20064;-77
2021/01/19 17:43:14;;;;;;;7.10;3.75;;;;;;;;;;4844259;29;20148;-78
2021/01/19 17:45:40;;;;;;;6.95;3.58;;;;;;;;;;4847034;29;20053;-78
2021/01/19 17:48:14;;;;;;;6.45;4.32;;;;;;;;;;4846387;29;20585;-77
2021/01/19 17:50:41;;;;;;;8.80;3.72;;;;;;;;;;4847410;29;20056;-76
2021/01/19 17:53:07;;;;;;;9.13;4.57;;;;;;;;;;4845494;29;20041;-77
2021/01/19 17:55:35;;;;;;;5.35;3.42;;;;;;;;;;4847048;29;20938;-77
2021/01/19 17:58:01;;;;;;;6.47;3.63;;;;;;;;;;4847497;29;20444;-77
2021/01/19 18:00:27;;;;;;;8.45;3.92;;;;;;;;;;4846456;29;20423;-77
2021/01/19 18:02:56;;;;;;;5.32;3.55;;;;;;;;;;4845273;29;20058;-76
2021/01/19 18:05:23;;;;;;;6.15;3.72;;;;;;;;;;4845824;29;20091;-77
2021/01/19 18:07:53;;;;;;;6.15;3.20;;;;;;;;;;4841044;29;20056;-77
2021/01/19 18:10:20;;;;;;;6.75;3.50;;;;;;;;;;4843648;29;20046;-76
2021/01/19 18:12:46;;;;;;;7.20;4.60;;;;;;;;;;4845500;29;20049;-76
2021/01/19 18:15:16;;;;;;;4.95;3.40;;;;;;;;;;4843919;29;20531;-75
2021/01/19 18:17:43;;;;;;;7.68;4.28;;;;;;;;;;4844227;29;20129;-81
2021/01/19 18:20:12;;;;;;;9.82;3.63;;;;;;;;;;4845537;29;20056;-81
2021/01/19 18:22:39;;;;;;;7.50;4.07;;;;;;;;;;4840566;29;20485;-79
2021/01/19 18:25:09;;;;;;;6.47;3.75;;;;;;;;;;4848104;29;20415;-79
2021/01/19 18:27:39;;;;;;;5.82;3.28;;;;;;;;;;4846763;29;20476;-83
2021/01/19 18:30:06;;;;;;;5.80;3.47;;;;;;;;;;4847870;29;20061;-83
2021/01/19 18:32:32;;;;;;;6.97;2.97;;;;;;;;;;4844370;29;20415;-86
2021/01/19 18:34:58;;;;;;;8.02;3.90;;;;;;;;;;4845322;29;20057;-83
2021/01/19 18:37:25;;;;;;;5.10;3.50;;;;;;;;;;4841423;29;20042;-84
2021/01/19 18:39:51;;;;;;;5.18;3.40;;;;;;;;;;4843606;29;20054;-85
2021/01/19 18:42:20;;;;;;;6.53;3.70;;;;;;;;;;4844581;29;20046;-78
2021/01/19 18:44:48;;;;;;;4.25;3.20;;;;;;;;;;4846787;29;20477;-78
2021/01/19 18:47:14;;;;;;;6.13;3.42;;;;;;;;;;4845992;29;20050;-77
2021/01/19 18:49:43;;;;;;;9.10;3.40;;;;;;;;;;4845236;29;20061;-78
2021/01/19 18:52:09;;;;;;;6.45;3.28;;;;;;;;;;4847248;29;20051;-78
2021/01/19 18:54:36;;;;;;;6.60;3.13;;;;;;;;;;4851881;29;20050;-77
2021/01/19 18:57:04;;;;;;;6.05;3.13;;;;;;;;;;4851645;29;20057;-80
2021/01/19 18:59:30;;;;;;;5.10;3.58;;;;;;;;;;4850197;29;20136;-76
2021/01/19 19:01:57;;;;;;;5.30;3.55;;;;;;;;;;4855814;29;20564;-77
2021/01/19 19:04:23;;;;;;;6.80;3.47;;;;;;;;;;4852302;29;20472;-77
2021/01/19 19:06:54;;;;;;;8.07;3.90;;;;;;;;;;4851983;29;20085;-77
2021/01/19 19:09:21;;;;;;;6.20;4.07;;;;;;;;;;4850662;29;20061;-77
2021/01/19 19:11:47;;;;;;;9.50;4.43;;;;;;;;;;4852169;29;20053;-77
2021/01/19 19:14:13;;;;;;;5.30;3.95;;;;;;;;;;4849337;29;20543;-78
2021/01/19 19:16:41;;;;;;;9.93;4.38;;;;;;;;;;4847780;29;20058;-78
2021/01/19 19:19:08;;;;;;;9.18;4.55;;;;;;;;;;4845184;29;20060;-77
2021/01/19 19:21:38;;;;;;;7.15;3.88;;;;;;;;;;4847476;29;20057;-77
2021/01/19 19:24:08;;;;;;;7.07;4.30;;;;;;;;;;4846815;29;20081;-78
2021/01/19 19:26:35;;;;;;;6.90;4.63;;;;;;;;;;4846817;29;20060;-78
2021/01/19 19:29:02;;;;;;;6.22;4.22;;;;;;;;;;4844835;29;20393;-78
2021/01/19 19:31:28;;;;;;;7.30;4.32;;;;;;;;;;4847289;29;20148;-78
2021/01/19 19:33:54;;;;;;;8.48;4.05;;;;;;;;;;4846984;29;20054;-79
2021/01/19 19:36:24;;;;;;;5.78;3.67;;;;;;;;;;4846927;29;20488;-78
2021/01/19 19:38:50;;;;;;;;;;;;;;;;;;4847008;29;20057;-78
2021/01/19 19:41:18;;;;;;;6.68;3.83;;;;;;;;;;4846823;29;20386;-78
2021/01/19 19:43:47;;;;;;;5.72;3.55;;;;;;;;;;4850474;29;20533;-77
2021/01/19 19:46:13;;;;;;;4.85;3.42;;;;;;;;;;4852520;29;20505;-77
2021/01/19 19:48:45;;;;;;;7.40;4.70;;;;;;;;;;4852814;29;20436;-78
2021/01/19 19:51:13;;;;;;;7.28;4.88;;;;;;;;;;4845675;29;20443;-77
2021/01/19 19:53:39;;;;;;;10.40;5.07;;;;;;;;;;4854114;29;20389;-75
2021/01/19 19:56:05;;;;;;;11.02;5.20;;;;;;;;;;4849053;29;20077;-76
2021/01/19 19:58:33;;;;;;;8.00;4.80;;;;;;;;;;4844037;29;20102;-76
2021/01/19 20:00:59;;;;;;;10.13;5.43;;;;;;;;;;4845870;29;20064;-78
2021/01/19 20:03:27;;;;;;;10.30;5.57;;;;;;;;;;4852694;29;20050;-78
2021/01/19 20:05:54;;;;;;;11.57;5.57;;;;;;;;;;4846153;29;21750;-78
2021/01/19 20:08:20;;;;;;;8.68;4.88;;;;;;;;;;4850784;29;20085;-78
2021/01/19 20:10:46;;;;;;;9.77;5.30;;;;;;;;;;4845679;29;21001;-80
2021/01/19 20:13:13;;;;;;;12.48;5.70;;;;;;;;;;4848976;29;20057;-81
2021/01/19 20:15:40;;;;;;;9.52;5.65;;;;;;;;;;4846802;29;20054;-80
2021/01/19 20:18:07;;;;;;;9.75;6.55;;;;;;;;;;4844880;29;20141;-79
2021/01/19 20:20:33;;;;;;;10.52;5.55;;;;;;;;;;4846913;29;20126;-79
2021/01/19 20:22:59;;;;;;;13.07;5.93;;;;;;;;;;4841714;29;22925;-79
2021/01/19 20:25:26;;;;;;;7.32;5.40;;;;;;;;;;4848632;29;20493;-80
2021/01/19 20:27:52;;;;;;;10.00;5.82;;;;;;;;;;4850635;29;20453;-78
2021/01/19 20:30:18;;;;;;;10.10;5.65;;;;;;;;;;4841650;29;20081;-80
2021/01/19 20:32:44;;;;;;;10.50;5.50;;;;;;;;;;4849132;29;20057;-78
2021/01/19 20:35:11;;;;;;;9.60;5.80;;;;;;;;;;4851067;29;20084;-74
2021/01/19 20:37:37;;;;;;;11.10;4.85;;;;;;;;;;4846332;29;20049;-79
2021/01/19 20:40:04;;;;;;;11.85;6.28;;;;;;;;;;4844531;29;20128;-77
2021/01/19 20:42:30;;;;;;;7.60;4.28;;;;;;;;;;4852736;29;20493;-76
2021/01/19 20:44:56;;;;;;;10.52;4.72;;;;;;;;;;4846391;29;20056;-76
2021/01/19 20:47:23;;;;;;;7.30;4.72;;;;;;;;;;4845018;29;20058;-76
2021/01/19 20:49:49;;;;;;;7.45;4.38;;;;;;;;;;4848373;29;20050;-77
2021/01/19 20:52:15;;;;;;;7.22;3.95;;;;;;;;;;4846667;29;20129;-77
2021/01/19 20:54:41;;;;;;;8.85;4.10;;;;;;;;;;4842680;29;20151;-77
2021/01/19 20:57:08;;;;;;;6.43;4.00;;;;;;;;;;4844524;29;20057;-77
2021/01/19 20:59:34;;;;;;;6.47;3.83;;;;;;;;;;4849616;29;20061;-80
2021/01/19 21:02:01;;;;;;;6.00;3.47;;;;;;;;;;4849111;29;20472;-80
2021/01/19 21:04:27;;;;;;;6.55;3.55;;;;;;;;;;4847641;29;20061;-80
2021/01/19 21:06:53;;;;;;;5.63;3.35;;;;;;;;;;4841347;29;20062;-79
2021/01/19 21:09:20;;;;;;;5.10;3.47;;;;;;;;;;4843280;29;20063;-79
2021/01/19 21:11:49;;;;;;;5.60;3.55;;;;;;;;;;4847952;29;20053;-81
2021/01/19 21:14:15;;;;;;;7.20;3.20;;;;;;;;;;4850057;29;20068;-80
2021/01/19 21:16:41;;;;;;;6.95;2.97;;;;;;;;;;4852303;29;20067;-80
2021/01/19 21:19:10;;;;;;;7.13;3.00;;;;;;;;;;4848391;29;20054;-81
2021/01/19 21:21:36;;;;;;;4.72;2.83;;;;;;;;;;4847478;29;20056;-81
2021/01/19 21:24:02;;;;;;;8.10;3.97;;;;;;;;;;4843356;29;20056;-81
2021/01/19 21:26:28;;;;;;;8.73;3.65;;;;;;;;;;4847679;29;20560;-79
2021/01/19 21:28:55;;;;;;;5.65;3.38;;;;;;;;;;4846425;29;20568;-80
2021/01/19 21:31:21;;;;;;;5.57;3.17;;;;;;;;;;4845556;29;20056;-81
2021/01/19 21:33:47;;;;;;;5.78;3.50;;;;;;;;;;4854749;29;20061;-80
2021/01/19 21:36:22;;;;;;;4.82;3.47;;;;;;;;;;4845225;29;20052;-77
2021/01/19 21:38:52;;;;;;;4.55;3.20;;;;;;;;;;4845708;29;20057;-76
2021/01/19 21:41:22;;;;;;;7.40;4.00;;;;;;;;;;4843644;29;20052;-77
2021/01/19 21:43:49;;;;;;;9.27;3.55;;;;;;;;;;4846272;29;20083;-77
2021/01/19 21:46:18;;;;;;;7.35;4.00;;;;;;;;;;4847734;29;20053;-78
2021/01/19 21:48:45;;;;;;;6.85;3.40;;;;;;;;;;4844075;29;20049;-80
2021/01/19 21:51:11;;;;;;;5.05;3.72;;;;;;;;;;4846711;29;20058;-80
2021/01/19 21:53:38;;;;;;;6.68;3.28;;;;;;;;;;4849871;29;20058;-80
2021/01/19 21:56:05;;;;;;;7.05;3.10;;;;;;;;;;4843932;29;20145;-81
2021/01/19 21:58:31;;;;;;;5.93;3.15;;;;;;;;;;4841677;29;20067;-80
2021/01/19 22:00:58;;;;;;;5.68;3.33;;;;;;;;;;4845143;29;20057;-80
2021/01/19 22:03:27;;;;;;;5.45;3.13;;;;;;;;;;4844841;29;20424;-81
2021/01/19 22:05:53;;;;;;;6.07;2.88;;;;;;;;;;4846212;29;20377;-81
2021/01/19 22:08:22;;;;;;;5.10;2.70;;;;;;;;;;4842373;29;20069;-80
2021/01/19 22:10:48;;;;;;;5.55;2.97;;;;;;;;;;4843867;29;20053;-80
2021/01/19 22:13:14;;;;;;;4.82;3.33;;;;;;;;;;4848186;29;20053;-80
2021/01/19 22:15:40;;;;;;;5.40;3.13;;;;;;;;;;4846580;29;20057;-81
2021/01/19 22:18:06;;;;;;;6.40;2.88;;;;;;;;;;4848128;29;20060;-81
2021/01/19 22:20:33;;;;;;;5.05;2.70;;;;;;;;;;4845701;29;20047;-80
2021/01/19 22:22:59;;;;;;;4.85;2.83;;;;;;;;;;4847725;29;20077;-81
2021/01/19 22:25:25;;;;;;;4.05;2.95;;;;;;;;;;4843649;29;20061;-77
2021/01/19 22:27:52;;;;;;;4.45;2.83;;;;;;;;;;4849067;29;20540;-80
2021/01/19 22:30:19;;;;;;;3.83;2.33;;;;;;;;;;4840448;29;20056;-78
2021/01/19 22:32:45;;;;;;;4.97;3.25;;;;;;;;;;4850507;29;20048;-78
2021/01/19 22:35:11;;;;;;;4.82;3.13;;;;;;;;;;4848361;29;20073;-78
2021/01/19 22:37:37;;;;;;;5.32;3.00;;;;;;;;;;4843813;29;20053;-78
2021/01/19 22:40:04;;;;;;;5.53;2.80;;;;;;;;;;4855568;29;20076;-78
2021/01/19 22:42:30;;;;;;;5.20;2.78;;;;;;;;;;4854943;29;20144;-78
2021/01/19 22:44:56;;;;;;;4.13;2.78;;;;;;;;;;4850121;29;20052;-78
2021/01/19 22:47:22;;;;;;;4.30;2.55;;;;;;;;;;4849151;29;20053;-79
2021/01/19 22:49:48;;;;;;;4.28;2.65;;;;;;;;;;4846725;29;20054;-80
2021/01/19 22:52:15;;;;;;;3.50;2.40;;;;;;;;;;4846803;29;20045;-78
2021/01/19 22:54:41;;;;;;;5.70;2.78;;;;;;;;;;4846368;29;20130;-78
2021/01/19 22:57:08;;;;;;;5.07;3.00;;;;;;;;;;4848597;29;20053;-78
2021/01/19 22:59:35;;;;;;;4.57;2.67;;;;;;;;;;4852104;29;20057;-78
2021/01/19 23:02:01;;;;;;;5.28;2.95;;;;;;;;;;4846176;29;20053;-79
2021/01/19 23:04:28;;;;;;;4.93;2.13;;;;;;;;;;4851097;29;20065;-77
2021/01/19 23:06:55;;;;;;;5.30;2.40;;;;;;;;;;4849896;29;20059;-78
2021/01/19 23:09:26;;;;;;;4.75;3.03;;;;;;;;;;4850848;29;20057;-78
2021/01/19 23:11:52;;;;;;;4.82;2.75;;;;;;;;;;4851921;29;20053;-77
2021/01/19 23:14:18;;;;;;;4.38;2.45;;;;;;;;;;4850850;29;20163;-78
2021/01/19 23:16:45;;;;;;;4.68;2.83;;;;;;;;;;4854566;29;20499;-78
2021/01/19 23:19:11;;;;;;;3.92;2.83;;;;;;;;;;4847413;29;20489;-77
2021/01/19 23:21:37;;;;;;;5.50;3.60;;;;;;;;;;4856604;29;20049;-78
2021/01/19 23:24:05;;;;;;;4.22;2.78;;;;;;;;;;4845042;29;20053;-78
2021/01/19 23:26:31;;;;;;;4.18;2.67;;;;;;;;;;4848501;29;20053;-79
2021/01/19 23:28:57;;;;;;;5.05;2.75;;;;;;;;;;4846372;29;20129;-79
2021/01/19 23:31:24;;;;;;;3.97;2.20;;;;;;;;;;4846150;29;20081;-76
2021/01/19 23:33:50;;;;;;;4.03;2.65;;;;;;;;;;4847709;29;20049;-82
2021/01/19 23:36:17;;;;;;;3.70;2.50;;;;;;;;;;4850320;29;20050;-82
2021/01/19 23:38:43;;;;;;;5.93;3.28;;;;;;;;;;4847975;29;20207;-76
2021/01/19 23:41:09;;;;;;;3.92;2.55;;;;;;;;;;4846589;29;20064;-80
2021/01/19 23:43:36;;;;;;;3.58;2.53;;;;;;;;;;4845286;29;20146;-82
2021/01/19 23:46:02;;;;;;;3.58;2.47;;;;;;;;;;4862856;29;20081;-82
2021/01/19 23:48:28;;;;;;;4.43;2.42;;;;;;;;;;4849603;29;20055;-80
2021/01/19 23:50:54;;;;;;;5.05;3.00;;;;;;;;;;4853069;29;20049;-77
2021/01/19 23:53:20;;;;;;;3.53;2.42;;;;;;;;;;4850012;29;20050;-78
2021/01/19 23:55:46;;;;;;;3.38;2.45;;;;;;;;;;4846252;29;20054;-81
2021/01/19 23:58:13;;;;;;;3.30;2.45;;;;;;;;;;4848041;29;20453;-78
